Time;durP1;ratioP1;P1;durP2;ratioP2;P2;SDS_P1;SDS_P2;PMS_P1;PMS_P2;Temp;Humidity;BMP_temperature;BMP_pressure;BME280_temperature;BME280_humidity;BME280_pressure;Samples;Min_cycle;Max_cycle;Signal;HPM_P1;HPM_P2
2023/12/22 00:00:47;;;;;;;3.93;1.30;;;7.70;99.90;;;;;;5046432;28;20196;-38
2023/12/22 00:03:14;;;;;;;3.10;1.00;;;7.60;99.90;;;;;;5030365;28;20212;-38
2023/12/22 00:05:40;;;;;;;2.20;1.23;;;7.60;99.90;;;;;;5057167;28;20303;-43
2023/12/22 00:08:06;;;;;;;4.73;1.53;;;7.60;99.90;;;;;;5037449;28;20272;-40
2023/12/22 00:10:31;;;;;;;3.37;1.23;;;7.60;99.90;;;;;;5035196;28;20241;-41
2023/12/22 00:12:57;;;;;;;7.87;1.77;;;7.50;99.90;;;;;;5036569;28;20296;-37
2023/12/22 00:15:23;;;;;;;5.53;1.40;;;7.50;99.90;;;;;;5028160;28;20241;-36
2023/12/22 00:17:49;;;;;;;4.77;1.20;;;7.50;99.90;;;;;;5043890;28;20193;-41
2023/12/22 00:20:15;;;;;;;4.77;1.10;;;7.50;99.90;;;;;;5039093;28;20213;-41
2023/12/22 00:22:41;;;;;;;4.83;1.37;;;7.50;99.90;;;;;;5046099;28;20293;-41
2023/12/22 00:25:10;;;;;;;4.50;1.30;;;7.40;99.90;;;;;;5039476;28;20211;-41
2023/12/22 00:27:35;;;;;;;5.07;1.20;;;7.40;99.90;;;;;;5039131;28;20177;-37
2023/12/22 00:30:01;;;;;;;3.57;1.23;;;7.50;99.90;;;;;;5053251;28;20180;-41
2023/12/22 00:32:27;;;;;;;4.00;1.43;;;7.50;99.90;;;;;;5042122;28;20198;-40
2023/12/22 00:34:53;;;;;;;3.43;1.50;;;7.50;99.90;;;;;;5047736;28;20192;-38
2023/12/22 00:37:19;;;;;;;4.43;1.40;;;7.50;99.90;;;;;;5069609;28;20173;-43
2023/12/22 00:39:44;;;;;;;2.77;1.23;;;7.50;99.90;;;;;;5050959;28;20208;-38
2023/12/22 00:42:10;;;;;;;2.20;1.27;;;7.50;99.90;;;;;;5053399;28;20197;-41
2023/12/22 00:44:36;;;;;;;1.87;0.87;;;7.50;99.90;;;;;;5038832;28;20213;-41
2023/12/22 00:47:02;;;;;;;3.87;1.20;;;7.60;99.90;;;;;;5015654;28;20196;-40
2023/12/22 00:49:28;;;;;;;2.50;0.97;;;7.60;99.90;;;;;;5037961;28;20169;-40
2023/12/22 00:51:54;;;;;;;6.60;1.17;;;7.60;99.90;;;;;;5046342;28;20226;-37
2023/12/22 00:54:19;;;;;;;5.40;1.30;;;7.70;99.90;;;;;;5039608;28;20204;-40
2023/12/22 00:56:45;;;;;;;3.00;1.00;;;7.60;99.90;;;;;;5038369;28;20189;-40
2023/12/22 00:59:11;;;;;;;4.63;1.33;;;7.70;99.90;;;;;;5045180;28;20251;-39
2023/12/22 01:01:37;;;;;;;5.10;1.40;;;7.70;99.90;;;;;;5033147;28;20217;-39
2023/12/22 01:04:03;;;;;;;4.03;1.30;;;7.70;99.90;;;;;;5035290;28;20201;-37
2023/12/22 01:06:29;;;;;;;5.93;1.30;;;7.70;99.90;;;;;;5026754;28;20202;-42
2023/12/22 01:08:54;;;;;;;3.93;0.90;;;7.60;99.90;;;;;;5052228;28;20176;-36
2023/12/22 01:11:20;;;;;;;2.53;0.70;;;7.60;99.90;;;;;;5044903;28;20269;-42
2023/12/22 01:13:46;;;;;;;4.13;1.07;;;7.50;99.90;;;;;;5043787;28;20182;-40
2023/12/22 01:16:12;;;;;;;2.33;1.00;;;7.50;99.90;;;;;;5015410;28;20264;-38
2023/12/22 01:18:40;;;;;;;2.67;0.80;;;7.40;99.90;;;;;;5030337;28;20268;-38
2023/12/22 01:21:05;;;;;;;3.17;0.77;;;7.30;99.90;;;;;;5051020;28;20181;-39
2023/12/22 01:23:31;;;;;;;6.00;0.90;;;7.30;99.90;;;;;;5029384;28;20220;-37
2023/12/22 01:25:57;;;;;;;1.93;0.60;;;7.20;99.90;;;;;;5020099;28;20641;-41
2023/12/22 01:28:24;;;;;;;1.13;0.70;;;7.20;99.90;;;;;;5035823;28;20185;-39
2023/12/22 01:30:49;;;;;;;1.27;0.70;;;7.20;99.90;;;;;;5034606;28;20185;-43
2023/12/22 01:33:15;;;;;;;2.03;0.70;;;7.10;99.90;;;;;;5045431;28;20196;-42
2023/12/22 01:35:41;;;;;;;3.13;0.67;;;7.10;99.90;;;;;;5031947;28;20178;-43
2023/12/22 01:38:07;;;;;;;3.73;1.27;;;7.10;99.90;;;;;;5033560;28;20174;-42
2023/12/22 01:40:33;;;;;;;3.17;0.90;;;7.10;99.90;;;;;;5040544;28;20646;-42
2023/12/22 01:43:00;;;;;;;1.93;0.63;;;7.00;99.90;;;;;;5030142;28;20689;-42
2023/12/22 01:45:26;;;;;;;1.90;0.63;;;7.00;99.90;;;;;;5038409;28;20214;-42
2023/12/22 01:47:54;;;;;;;2.17;0.60;;;6.80;99.90;;;;;;5020616;28;20191;-43
2023/12/22 01:50:20;;;;;;;1.33;0.40;;;6.80;99.90;;;;;;5020600;28;20178;-42
2023/12/22 01:52:47;;;;;;;1.17;0.80;;;6.70;99.90;;;;;;5054109;28;20297;-42
2023/12/22 01:55:14;;;;;;;0.40;0.40;;;6.70;99.90;;;;;;5043537;28;20238;-43
2023/12/22 01:57:41;;;;;;;1.07;0.47;;;6.60;99.90;;;;;;5043535;28;20185;-43
2023/12/22 02:00:08;;;;;;;1.20;0.63;;;6.60;99.90;;;;;;5053601;28;20178;-42
2023/12/22 02:02:42;;;;;;;0.90;0.60;;;6.60;99.90;;;;;;5054331;28;20206;-42
2023/12/22 02:05:11;;;;;;;2.60;0.60;;;6.60;99.90;;;;;;5031756;28;20219;-42
2023/12/22 02:07:46;;;;;;;2.77;0.70;;;6.60;99.90;;;;;;5039274;28;20189;-42
2023/12/22 02:10:12;;;;;;;0.77;0.53;;;6.70;99.90;;;;;;5024600;28;20168;-42
2023/12/22 02:12:38;;;;;;;2.90;0.80;;;6.60;99.90;;;;;;5038907;28;20193;-42
2023/12/22 02:15:05;;;;;;;1.13;0.60;;;6.60;99.90;;;;;;5049645;28;20190;-42
2023/12/22 02:18:06;;;;;;;3.20;0.73;;;6.60;99.90;;;;;;5031015;28;20265;-42
2023/12/22 02:20:32;;;;;;;3.13;0.90;;;6.60;99.90;;;;;;5054028;28;20185;-42
2023/12/22 02:22:58;;;;;;;2.07;0.73;;;6.70;99.90;;;;;;5065257;28;20228;-42
2023/12/22 02:25:24;;;;;;;5.40;1.13;;;6.70;99.90;;;;;;5027851;28;20226;-42
2023/12/22 02:27:53;;;;;;;4.33;1.20;;;6.70;99.90;;;;;;5037938;28;20187;-43
2023/12/22 02:30:25;;;;;;;5.40;1.03;;;6.80;99.90;;;;;;5055137;28;20180;-42
2023/12/22 02:32:56;;;;;;;6.17;1.23;;;6.80;99.90;;;;;;5036685;28;20197;-42
2023/12/22 02:35:25;;;;;;;2.40;1.20;;;6.80;99.90;;;;;;5054490;28;20251;-42
2023/12/22 02:37:52;;;;;;;3.07;1.03;;;6.80;99.90;;;;;;5038057;28;20205;-42
2023/12/22 02:40:19;;;;;;;4.60;1.10;;;6.80;99.90;;;;;;5025257;28;20212;-42
2023/12/22 02:42:45;;;;;;;5.53;1.20;;;6.80;99.90;;;;;;5052134;28;20232;-42
2023/12/22 02:45:14;;;;;;;2.87;1.00;;;6.90;99.90;;;;;;5038969;28;20203;-44
2023/12/22 02:47:40;;;;;;;3.40;0.97;;;7.00;99.90;;;;;;5036893;28;20190;-42
2023/12/22 02:50:07;;;;;;;4.37;1.10;;;7.00;99.90;;;;;;5036978;28;20184;-42
2023/12/22 02:52:33;;;;;;;4.07;1.10;;;7.00;99.90;;;;;;5039120;28;20237;-42
2023/12/22 02:54:59;;;;;;;3.67;0.90;;;7.00;99.90;;;;;;5030185;28;20209;-42
2023/12/22 02:57:25;;;;;;;3.87;1.20;;;7.00;99.90;;;;;;5018691;28;20700;-42
2023/12/22 02:59:51;;;;;;;4.43;1.20;;;7.00;99.90;;;;;;5025587;28;20185;-42
2023/12/22 03:02:16;;;;;;;2.97;0.90;;;7.10;99.90;;;;;;5050504;28;20270;-42
2023/12/22 03:04:42;;;;;;;2.83;0.93;;;7.10;99.90;;;;;;5034811;28;20251;-42
2023/12/22 03:07:08;;;;;;;2.37;0.63;;;7.00;99.90;;;;;;5054897;28;20177;-43
2023/12/22 03:09:34;;;;;;;2.97;0.70;;;6.90;99.90;;;;;;5038151;28;20185;-42
2023/12/22 03:12:03;;;;;;;4.17;0.60;;;6.80;99.90;;;;;;5072979;28;20240;-42
2023/12/22 03:14:33;;;;;;;3.63;0.87;;;6.80;99.90;;;;;;5044954;28;20178;-42
2023/12/22 03:17:03;;;;;;;3.10;1.00;;;6.80;99.90;;;;;;5053777;28;20175;-42
2023/12/22 03:19:29;;;;;;;2.03;0.80;;;6.70;99.90;;;;;;5037635;28;20192;-43
2023/12/22 03:21:56;;;;;;;2.53;0.60;;;6.70;99.90;;;;;;5046603;28;20222;-42
2023/12/22 03:24:25;;;;;;;0.60;0.50;;;6.70;99.90;;;;;;5030688;28;20213;-42
2023/12/22 03:26:52;;;;;;;2.87;0.87;;;6.70;99.90;;;;;;5017769;28;20627;-42
2023/12/22 03:29:18;;;;;;;1.33;0.67;;;6.70;99.90;;;;;;5017985;28;20208;-41
2023/12/22 03:31:44;;;;;;;2.70;0.80;;;6.70;99.90;;;;;;5034459;28;20240;-42
2023/12/22 03:34:11;;;;;;;1.07;0.70;;;6.70;99.90;;;;;;5054180;28;20216;-39
2023/12/22 03:36:37;;;;;;;3.03;0.60;;;6.70;99.90;;;;;;5028062;28;20188;-37
2023/12/22 03:39:03;;;;;;;2.27;0.43;;;6.60;99.90;;;;;;5036084;28;20186;-42
2023/12/22 03:41:29;;;;;;;1.97;0.60;;;6.70;99.90;;;;;;5043841;28;20204;-37
2023/12/22 03:43:56;;;;;;;1.80;0.80;;;6.70;99.90;;;;;;5019351;28;20209;-38
2023/12/22 03:46:22;;;;;;;2.10;0.70;;;6.60;99.90;;;;;;5049507;28;20216;-39
2023/12/22 03:48:47;;;;;;;2.33;0.70;;;6.60;99.90;;;;;;5020417;28;20173;-39
2023/12/22 03:51:14;;;;;;;0.93;0.60;;;6.60;99.90;;;;;;5037023;28;20198;-40
2023/12/22 03:53:41;;;;;;;2.83;0.63;;;6.60;99.90;;;;;;5052032;28;20178;-38
2023/12/22 03:56:11;;;;;;;2.13;0.73;;;6.60;99.90;;;;;;5043768;28;20542;-37
2023/12/22 03:58:38;;;;;;;4.27;1.00;;;6.60;99.90;;;;;;5030956;28;20214;-37
2023/12/22 04:01:04;;;;;;;3.87;1.00;;;6.70;99.90;;;;;;5036520;28;20181;-43
2023/12/22 04:03:30;;;;;;;4.37;1.33;;;6.70;99.90;;;;;;5051237;28;20209;-43
2023/12/22 04:05:56;;;;;;;4.53;0.90;;;6.70;99.90;;;;;;5021432;28;20174;-43
2023/12/22 04:08:22;;;;;;;6.30;1.43;;;6.80;99.90;;;;;;5052839;28;20234;-43
2023/12/22 04:10:49;;;;;;;4.20;1.07;;;6.90;99.90;;;;;;5035757;28;20177;-42
2023/12/22 04:13:15;;;;;;;3.83;1.10;;;7.00;99.90;;;;;;5033310;28;20194;-43
2023/12/22 04:15:41;;;;;;;5.17;1.50;;;7.00;99.90;;;;;;5048104;28;20208;-43
2023/12/22 04:18:06;;;;;;;7.83;1.20;;;7.00;99.90;;;;;;5036413;28;20170;-43
2023/12/22 04:20:32;;;;;;;6.63;1.20;;;7.10;99.90;;;;;;5017352;28;20269;-43
2023/12/22 04:22:58;;;;;;;8.37;1.97;;;7.00;99.90;;;;;;5033157;28;20198;-43
2023/12/22 04:25:25;;;;;;;5.90;1.37;;;7.10;99.90;;;;;;5040637;28;20216;-43
2023/12/22 04:27:52;;;;;;;5.13;1.20;;;7.10;99.90;;;;;;5034746;28;20242;-43
2023/12/22 04:30:18;;;;;;;3.87;1.30;;;7.10;99.90;;;;;;5017151;28;20174;-42
2023/12/22 04:32:44;;;;;;;5.13;1.10;;;7.10;99.90;;;;;;5033216;28;20216;-42
2023/12/22 04:35:10;;;;;;;4.60;1.10;;;7.00;99.90;;;;;;5036996;28;20181;-42
2023/12/22 04:37:36;;;;;;;6.37;1.37;;;7.00;99.90;;;;;;5034364;28;20182;-42
2023/12/22 04:40:03;;;;;;;2.50;1.07;;;7.10;99.90;;;;;;5016627;28;20192;-42
2023/12/22 04:42:29;;;;;;;7.10;1.30;;;7.10;99.90;;;;;;5017174;28;20205;-43
2023/12/22 04:44:56;;;;;;;3.90;1.27;;;7.10;99.90;;;;;;5017148;28;20260;-42
2023/12/22 04:47:21;;;;;;;3.97;1.20;;;7.10;99.90;;;;;;5033415;28;20177;-42
2023/12/22 04:49:47;;;;;;;6.07;1.60;;;7.10;99.90;;;;;;5031359;28;20191;-43
2023/12/22 04:52:13;;;;;;;3.97;1.20;;;7.10;99.90;;;;;;5032187;28;20219;-42
2023/12/22 04:54:39;;;;;;;6.93;1.30;;;7.10;99.90;;;;;;5041932;28;20186;-42
2023/12/22 04:57:05;;;;;;;8.77;1.53;;;7.10;99.90;;;;;;5066238;28;20184;-43
2023/12/22 04:59:31;;;;;;;3.93;1.33;;;7.10;99.90;;;;;;5049174;28;20173;-43
2023/12/22 05:01:57;;;;;;;5.63;1.40;;;7.10;99.90;;;;;;5044543;28;20201;-43
2023/12/22 05:04:23;;;;;;;4.83;1.20;;;7.10;99.90;;;;;;5061568;28;20212;-42
2023/12/22 05:06:49;;;;;;;4.03;1.57;;;7.10;99.90;;;;;;5036602;28;20188;-42
2023/12/22 05:09:15;;;;;;;5.47;1.60;;;7.10;99.90;;;;;;5041695;28;20245;-43
2023/12/22 05:11:41;;;;;;;8.33;1.50;;;7.20;99.90;;;;;;5051405;28;20414;-43
2023/12/22 05:14:09;;;;;;;7.83;1.60;;;7.10;99.90;;;;;;5035728;28;20185;-42
2023/12/22 05:16:36;;;;;;;5.30;1.60;;;7.20;99.90;;;;;;5052549;28;20185;-42
2023/12/22 05:19:02;;;;;;;6.73;2.10;;;7.20;99.90;;;;;;5048370;28;20281;-43
2023/12/22 05:21:28;;;;;;;6.63;1.80;;;7.20;99.90;;;;;;5016657;28;20321;-42
2023/12/22 05:23:54;;;;;;;6.70;1.80;;;7.20;99.90;;;;;;5040643;28;20231;-43
2023/12/22 05:26:20;;;;;;;9.73;2.20;;;7.20;99.90;;;;;;5041617;28;20280;-43
2023/12/22 05:28:47;;;;;;;7.53;1.90;;;7.20;99.90;;;;;;5034672;28;20217;-43
2023/12/22 05:31:13;;;;;;;5.97;1.60;;;7.20;99.90;;;;;;5035002;28;20177;-42
2023/12/22 05:33:38;;;;;;;8.37;1.87;;;7.20;99.90;;;;;;5038544;28;20211;-43
2023/12/22 05:36:05;;;;;;;8.17;2.07;;;7.30;99.90;;;;;;5047184;28;20189;-43
2023/12/22 05:38:31;;;;;;;7.70;1.80;;;7.20;99.90;;;;;;5040285;28;20187;-43
2023/12/22 05:40:57;;;;;;;6.43;1.97;;;7.30;99.90;;;;;;5039568;28;20190;-43
2023/12/22 05:43:23;;;;;;;7.47;1.73;;;7.30;99.90;;;;;;5050312;28;20207;-43
2023/12/22 05:45:48;;;;;;;8.13;2.50;;;7.20;99.90;;;;;;5027127;28;20181;-43
2023/12/22 05:48:14;;;;;;;9.03;2.03;;;7.20;99.90;;;;;;5039096;28;20255;-37
2023/12/22 05:50:40;;;;;;;9.90;2.07;;;7.20;99.90;;;;;;5031491;28;20178;-38
2023/12/22 05:53:06;;;;;;;8.43;2.40;;;7.30;99.90;;;;;;5039975;28;20206;-41
2023/12/22 05:55:32;;;;;;;7.63;1.73;;;7.30;99.90;;;;;;5042893;28;20196;-38
2023/12/22 05:57:58;;;;;;;7.30;2.17;;;7.30;99.90;;;;;;5021184;28;20193;-41
2023/12/22 06:00:23;;;;;;;7.10;1.93;;;7.30;99.90;;;;;;5029055;28;20190;-39
2023/12/22 06:02:49;;;;;;;7.50;2.23;;;7.30;99.90;;;;;;5033482;28;20264;-40
2023/12/22 06:05:15;;;;;;;4.43;1.27;;;7.40;99.90;;;;;;5027241;28;20229;-41
2023/12/22 06:07:41;;;;;;;7.33;1.80;;;7.60;99.90;;;;;;5028581;28;20205;-35
2023/12/22 06:10:09;;;;;;;6.93;1.60;;;7.50;99.90;;;;;;5029530;28;20186;-39
2023/12/22 06:12:36;;;;;;;7.33;1.60;;;7.50;99.90;;;;;;5056213;28;20205;-36
2023/12/22 06:15:02;;;;;;;3.47;1.27;;;7.50;99.90;;;;;;5029472;28;20227;-39
2023/12/22 06:17:27;;;;;;;5.57;1.33;;;7.50;99.90;;;;;;5045022;28;20181;-40
2023/12/22 06:19:53;;;;;;;6.27;1.57;;;7.40;99.90;;;;;;5031625;28;20186;-37
2023/12/22 06:22:19;;;;;;;8.23;1.40;;;7.50;99.90;;;;;;5018482;28;20282;-36
2023/12/22 06:24:45;;;;;;;4.93;1.83;;;7.50;99.90;;;;;;5015948;28;20210;-43
2023/12/22 06:27:11;;;;;;;4.47;1.47;;;7.50;99.90;;;;;;5068037;28;20174;-42
2023/12/22 06:29:36;;;;;;;7.50;1.47;;;7.50;99.90;;;;;;5070106;28;20185;-41
2023/12/22 06:32:05;;;;;;;6.20;1.70;;;7.40;99.90;;;;;;5051919;28;20201;-39
2023/12/22 06:34:31;;;;;;;8.17;1.97;;;7.40;99.90;;;;;;5033207;28;20228;-38
2023/12/22 06:36:59;;;;;;;4.57;1.67;;;7.40;99.90;;;;;;5033417;28;20182;-39
2023/12/22 06:39:25;;;;;;;4.97;1.60;;;7.40;99.90;;;;;;5033479;28;20182;-42
2023/12/22 06:41:51;;;;;;;5.43;1.50;;;7.40;99.90;;;;;;5028461;28;20212;-43
2023/12/22 06:44:17;;;;;;;7.70;1.87;;;7.30;99.90;;;;;;5028952;28;20342;-43
2023/12/22 06:46:42;;;;;;;9.03;1.63;;;7.40;99.90;;;;;;5045099;28;20181;-43
2023/12/22 06:49:08;;;;;;;7.33;1.57;;;7.40;99.90;;;;;;5023201;28;20315;-42
2023/12/22 06:51:35;;;;;;;7.20;1.90;;;7.40;99.90;;;;;;5062110;28;20189;-43
2023/12/22 06:54:02;;;;;;;9.83;1.83;;;7.40;99.90;;;;;;5033052;28;20212;-43
2023/12/22 06:56:31;;;;;;;5.90;2.07;;;7.40;99.90;;;;;;5038076;28;20205;-43
2023/12/22 06:58:57;;;;;;;7.27;1.57;;;7.40;99.90;;;;;;5029508;28;20185;-43
2023/12/22 07:01:28;;;;;;;9.37;1.77;;;7.40;99.90;;;;;;5055847;28;20229;-42
2023/12/22 07:03:55;;;;;;;9.23;1.80;;;7.50;99.90;;;;;;5034388;28;20240;-43
2023/12/22 07:06:26;;;;;;;7.27;2.10;;;7.50;99.90;;;;;;5073878;28;20192;-43
2023/12/22 07:09:11;;;;;;;7.93;1.73;;;7.50;99.90;;;;;;5040799;28;20189;-43
2023/12/22 07:11:37;;;;;;;6.53;2.23;;;7.50;99.90;;;;;;5045205;28;20208;-43
2023/12/22 07:14:04;;;;;;;7.97;2.53;;;7.40;99.90;;;;;;5035411;28;20189;-43
2023/12/22 07:16:30;;;;;;;7.13;2.33;;;7.40;99.90;;;;;;5040327;28;20185;-42
2023/12/22 07:18:56;;;;;;;5.80;2.07;;;7.30;99.90;;;;;;5050987;28;20181;-43
2023/12/22 07:21:21;;;;;;;10.33;2.23;;;7.30;99.90;;;;;;5034623;28;20255;-42
2023/12/22 07:23:47;;;;;;;5.97;1.80;;;7.30;99.90;;;;;;5032939;28;20213;-42
2023/12/22 07:26:13;;;;;;;6.67;1.70;;;7.30;99.90;;;;;;5049209;28;20288;-42
2023/12/22 07:28:39;;;;;;;9.00;2.03;;;7.30;99.90;;;;;;5036847;28;20229;-42
2023/12/22 07:31:05;;;;;;;11.20;2.50;;;7.20;99.90;;;;;;5038057;28;20177;-43
2023/12/22 07:33:31;;;;;;;8.73;2.80;;;7.30;99.90;;;;;;5024112;28;20185;-42
2023/12/22 07:35:57;;;;;;;8.07;1.80;;;7.30;99.90;;;;;;5033979;28;20251;-42
2023/12/22 07:38:23;;;;;;;15.80;6.13;;;7.30;99.90;;;;;;5032939;28;20182;-42
2023/12/22 07:40:49;;;;;;;9.20;2.57;;;7.30;99.90;;;;;;5034457;28;20204;-42
2023/12/22 07:43:15;;;;;;;9.43;2.60;;;7.30;99.90;;;;;;5017647;28;20224;-42
2023/12/22 07:45:42;;;;;;;7.00;2.17;;;7.30;99.90;;;;;;5051813;28;20337;-43
2023/12/22 07:48:08;;;;;;;8.43;2.30;;;7.30;99.90;;;;;;5034462;28;20257;-43
2023/12/22 07:50:34;;;;;;;8.30;2.27;;;7.30;99.90;;;;;;5017303;28;20240;-43
2023/12/22 07:52:59;;;;;;;7.33;1.80;;;7.30;99.90;;;;;;5022456;28;20213;-42
2023/12/22 07:55:25;;;;;;;7.63;1.97;;;7.30;99.90;;;;;;5028596;28;20186;-42
2023/12/22 07:57:51;;;;;;;8.13;2.70;;;7.30;99.90;;;;;;5025922;28;20235;-43
2023/12/22 08:00:18;;;;;;;9.10;2.23;;;7.30;99.90;;;;;;5036762;28;20189;-43
2023/12/22 08:02:44;;;;;;;10.47;2.43;;;7.30;99.90;;;;;;5041500;28;20303;-43
2023/12/22 08:05:10;;;;;;;7.83;1.77;;;7.30;99.90;;;;;;5037051;28;20288;-42
2023/12/22 08:07:36;;;;;;;10.47;2.40;;;7.30;99.90;;;;;;5036991;28;20264;-42
2023/12/22 08:10:03;;;;;;;5.80;2.10;;;7.30;99.90;;;;;;5036667;28;20177;-42
2023/12/22 08:12:31;;;;;;;10.00;2.43;;;7.30;99.90;;;;;;5036368;28;20258;-42
2023/12/22 08:14:58;;;;;;;7.40;1.87;;;7.30;99.90;;;;;;5054027;28;20276;-42
2023/12/22 08:17:24;;;;;;;10.80;3.40;;;7.30;99.90;;;;;;5053728;28;20196;-42
2023/12/22 08:19:49;;;;;;;11.07;2.33;;;7.30;99.90;;;;;;5036716;28;20185;-43
2023/12/22 08:22:15;;;;;;;7.30;2.10;;;7.40;99.90;;;;;;5028060;28;20209;-39
2023/12/22 08:24:41;;;;;;;6.77;2.33;;;7.40;99.90;;;;;;5033513;28;20209;-39
2023/12/22 08:27:08;;;;;;;12.20;2.43;;;7.40;99.90;;;;;;5033669;28;20185;-43
2023/12/22 08:29:34;;;;;;;9.80;2.50;;;7.40;99.90;;;;;;5016752;28;20178;-44
2023/12/22 08:32:00;;;;;;;11.63;2.33;;;7.50;99.90;;;;;;5033596;28;20194;-43
2023/12/22 08:34:27;;;;;;;8.83;1.90;;;7.50;99.90;;;;;;5017175;28;20332;-41
2023/12/22 08:36:53;;;;;;;10.87;2.53;;;7.50;99.90;;;;;;5052649;28;20201;-44
2023/12/22 08:39:19;;;;;;;9.53;2.80;;;7.50;99.90;;;;;;5043635;28;20646;-42
2023/12/22 08:41:45;;;;;;;15.97;2.57;;;7.60;99.90;;;;;;5032770;28;20201;-42
2023/12/22 08:44:14;;;;;;;9.27;2.27;;;7.60;99.90;;;;;;5045609;28;20238;-41
2023/12/22 08:46:40;;;;;;;10.07;2.83;;;7.70;99.90;;;;;;5030146;28;20177;-42
2023/12/22 08:49:07;;;;;;;7.70;1.93;;;7.70;99.90;;;;;;5013494;28;20200;-43
2023/12/22 08:51:34;;;;;;;7.07;1.87;;;7.70;99.90;;;;;;5036601;28;20281;-42
2023/12/22 08:54:00;;;;;;;9.20;2.70;;;7.70;99.90;;;;;;5020932;28;20192;-42
2023/12/22 08:56:28;;;;;;;8.00;2.40;;;7.60;99.90;;;;;;5068196;28;20268;-42
2023/12/22 08:58:55;;;;;;;4.53;1.93;;;7.60;99.90;;;;;;5036033;28;20187;-42
2023/12/22 09:01:21;;;;;;;5.93;2.00;;;7.50;99.90;;;;;;5070667;28;20289;-42
2023/12/22 09:03:48;;;;;;;5.90;1.63;;;7.50;99.90;;;;;;5036555;28;20208;-42
2023/12/22 09:06:18;;;;;;;10.90;2.23;;;7.40;99.90;;;;;;5031905;28;20174;-42
2023/12/22 09:08:44;;;;;;;9.40;2.03;;;7.40;99.90;;;;;;5027678;28;20237;-42
2023/12/22 09:11:12;;;;;;;7.03;2.27;;;7.40;99.90;;;;;;5028064;28;20264;-43
2023/12/22 09:13:39;;;;;;;4.97;2.07;;;7.30;99.90;;;;;;5023834;28;20224;-39
2023/12/22 09:16:05;;;;;;;8.67;2.30;;;7.30;99.90;;;;;;5038554;28;20190;-44
2023/12/22 09:18:34;;;;;;;8.17;2.33;;;7.30;99.90;;;;;;5016368;28;20181;-44
2023/12/22 09:21:01;;;;;;;10.43;2.03;;;7.30;99.90;;;;;;5015970;28;20178;-37
2023/12/22 09:23:27;;;;;;;7.43;2.00;;;7.30;99.90;;;;;;5037542;28;20178;-42
2023/12/22 09:25:53;;;;;;;10.50;2.50;;;7.40;99.90;;;;;;5031783;28;20189;-42
2023/12/22 09:28:19;;;;;;;5.70;1.53;;;7.40;99.90;;;;;;5047293;28;20231;-42
2023/12/22 09:30:45;;;;;;;6.10;2.00;;;7.40;99.90;;;;;;5038952;28;20177;-42
2023/12/22 09:33:11;;;;;;;4.77;1.70;;;7.40;99.90;;;;;;5052127;28;20196;-43
2023/12/22 09:35:37;;;;;;;8.53;2.10;;;7.40;99.90;;;;;;5048944;28;20185;-38
2023/12/22 09:38:03;;;;;;;8.47;2.00;;;7.40;99.90;;;;;;5016053;28;20178;-42
2023/12/22 09:40:30;;;;;;;10.67;2.50;;;7.40;99.90;;;;;;5032693;28;20190;-39
2023/12/22 09:42:58;;;;;;;7.53;2.37;;;7.40;99.90;;;;;;5016067;28;20216;-42
2023/12/22 09:45:24;;;;;;;12.50;2.10;;;7.50;99.90;;;;;;5043930;28;20274;-42
2023/12/22 09:47:53;;;;;;;9.30;2.53;;;7.50;99.90;;;;;;5037388;28;20185;-42
2023/12/22 09:50:21;;;;;;;10.27;2.50;;;7.60;99.90;;;;;;5032045;28;20185;-42
2023/12/22 09:52:47;;;;;;;10.23;2.47;;;7.60;99.90;;;;;;5037395;28;20288;-42
2023/12/22 09:55:17;;;;;;;7.33;2.23;;;7.60;99.90;;;;;;5048754;28;20235;-42
2023/12/22 09:57:44;;;;;;;9.23;2.40;;;7.60;99.90;;;;;;5032210;28;20186;-42
2023/12/22 10:00:12;;;;;;;12.87;3.33;;;7.60;99.90;;;;;;5015504;28;20185;-43
2023/12/22 10:02:39;;;;;;;13.03;4.30;;;7.60;99.90;;;;;;5045839;28;20209;-42
2023/12/22 10:05:05;;;;;;;12.27;3.90;;;7.60;99.90;;;;;;5035769;28;20213;-44
2023/12/22 10:07:33;;;;;;;16.17;5.73;;;7.70;99.90;;;;;;5035657;28;20177;-44
2023/12/22 10:10:00;;;;;;;10.90;3.37;;;7.60;99.90;;;;;;5070176;28;20177;-43
2023/12/22 10:12:28;;;;;;;12.67;3.47;;;7.70;99.90;;;;;;5043802;28;20200;-42
2023/12/22 10:14:56;;;;;;;9.67;3.00;;;7.70;99.90;;;;;;5045521;28;20185;-42
2023/12/22 10:17:22;;;;;;;13.10;3.63;;;7.70;99.90;;;;;;5045617;28;20184;-44
2023/12/22 10:19:48;;;;;;;5.80;1.93;;;7.70;99.90;;;;;;5035654;28;20249;-43
2023/12/22 10:22:16;;;;;;;8.77;2.43;;;7.70;99.90;;;;;;5023583;28;20244;-42
2023/12/22 10:24:48;;;;;;;8.37;2.37;;;7.60;99.90;;;;;;5041142;28;20292;-44
2023/12/22 10:27:21;;;;;;;9.83;2.80;;;7.70;99.90;;;;;;5045994;28;20780;-39
2023/12/22 10:29:50;;;;;;;8.03;2.10;;;7.70;99.90;;;;;;5059058;28;20204;-42
2023/12/22 10:32:17;;;;;;;11.27;2.73;;;7.60;99.90;;;;;;5046167;28;20200;-42
2023/12/22 10:34:46;;;;;;;11.30;3.43;;;7.70;99.90;;;;;;5041793;28;20225;-43
2023/12/22 10:37:14;;;;;;;10.17;2.97;;;7.60;99.90;;;;;;5025179;28;20214;-42
2023/12/22 10:39:42;;;;;;;12.90;2.80;;;7.60;99.90;;;;;;5046941;28;20181;-42
2023/12/22 10:42:09;;;;;;;9.37;2.60;;;7.60;99.90;;;;;;5026374;28;20193;-36
2023/12/22 10:44:40;;;;;;;8.50;2.27;;;7.60;99.90;;;;;;5035749;28;20329;-37
2023/12/22 10:47:07;;;;;;;7.90;2.23;;;7.60;99.90;;;;;;5046948;28;20186;-43
2023/12/22 10:49:34;;;;;;;8.13;2.20;;;7.60;99.90;;;;;;5041858;28;20186;-43
2023/12/22 10:52:00;;;;;;;9.03;2.87;;;7.60;99.90;;;;;;5033138;28;20204;-43
2023/12/22 10:54:27;;;;;;;8.00;2.17;;;7.60;99.90;;;;;;5034547;28;20181;-40
2023/12/22 10:56:59;;;;;;;6.93;1.93;;;7.60;99.90;;;;;;5041984;28;20189;-39
2023/12/22 10:59:28;;;;;;;8.03;2.27;;;7.50;99.90;;;;;;5041329;28;20190;-44
2023/12/22 11:01:58;;;;;;;7.63;2.13;;;7.50;99.90;;;;;;5040959;28;20198;-41
2023/12/22 11:04:34;;;;;;;7.43;2.57;;;7.50;99.90;;;;;;5033240;28;20212;-42
2023/12/22 11:07:04;;;;;;;10.77;2.53;;;7.50;99.90;;;;;;5041523;28;20182;-42
2023/12/22 11:09:34;;;;;;;7.50;2.20;;;7.50;99.90;;;;;;5042545;28;20192;-43
2023/12/22 11:12:02;;;;;;;9.30;2.17;;;7.50;99.90;;;;;;5035378;28;20224;-42
2023/12/22 11:14:32;;;;;;;8.33;1.93;;;7.50;99.90;;;;;;5040641;28;20181;-42
2023/12/22 11:17:05;;;;;;;7.27;2.03;;;7.50;99.90;;;;;;5029237;28;20199;-42
2023/12/22 11:19:34;;;;;;;6.37;1.93;;;7.50;99.90;;;;;;5024156;28;20190;-43
2023/12/22 11:22:05;;;;;;;5.37;1.80;;;7.50;99.90;;;;;;5039291;28;20216;-42
2023/12/22 11:24:32;;;;;;;7.93;2.20;;;7.50;99.90;;;;;;5040748;28;20267;-43
2023/12/22 11:26:59;;;;;;;5.90;2.10;;;7.50;99.90;;;;;;5044387;28;20276;-42
2023/12/22 11:29:26;;;;;;;6.33;2.37;;;7.40;99.90;;;;;;5037643;28;20177;-42
2023/12/22 11:31:57;;;;;;;8.00;2.70;;;7.40;99.90;;;;;;5037771;28;20303;-42
2023/12/22 11:34:27;;;;;;;7.73;2.17;;;7.50;99.90;;;;;;5037931;28;20181;-42
2023/12/22 11:36:55;;;;;;;5.73;2.13;;;7.50;99.90;;;;;;5037791;28;20264;-42
2023/12/22 11:39:23;;;;;;;4.70;1.77;;;7.50;99.90;;;;;;5050687;28;20205;-41
2023/12/22 11:41:51;;;;;;;6.60;1.90;;;7.50;99.90;;;;;;5033878;28;20202;-44
2023/12/22 11:44:17;;;;;;;5.00;1.30;;;7.50;99.90;;;;;;5021781;28;20208;-43
2023/12/22 11:46:44;;;;;;;3.87;1.20;;;7.50;99.90;;;;;;5036893;28;20204;-44
2023/12/22 11:49:11;;;;;;;5.50;2.43;;;7.50;99.90;;;;;;5038080;28;20178;-44
2023/12/22 11:51:41;;;;;;;6.67;2.23;;;7.50;99.90;;;;;;5025923;28;20201;-44
2023/12/22 11:54:48;;;;;;;5.93;2.50;;;7.50;99.90;;;;;;5036192;28;20240;-43
2023/12/22 11:57:31;;;;;;;6.90;3.00;;;7.50;99.90;;;;;;5038970;28;20274;-38
2023/12/22 12:00:23;;;;;;;4.83;2.33;;;7.50;99.90;;;;;;5023898;28;20185;-44
2023/12/22 12:02:55;;;;;;;5.33;2.30;;;7.50;99.90;;;;;;5026685;28;20201;-43
2023/12/22 12:05:23;;;;;;;3.37;1.90;;;7.60;99.90;;;;;;5026014;28;20200;-43
2023/12/22 12:07:49;;;;;;;3.43;1.10;;;7.60;99.90;;;;;;5038662;28;20212;-42
2023/12/22 12:10:37;;;;;;;3.67;1.23;;;7.50;99.90;;;;;;5035754;28;20182;-42
2023/12/22 12:13:15;;;;;;;1.83;1.00;;;7.60;99.90;;;;;;5010598;28;20221;-43
2023/12/22 12:15:44;;;;;;;2.77;1.13;;;7.50;99.90;;;;;;5038146;28;20173;-38
2023/12/22 12:18:12;;;;;;;1.30;0.77;;;7.60;99.90;;;;;;5035775;28;20192;-41
2023/12/22 12:20:38;;;;;;;1.97;0.80;;;7.50;99.90;;;;;;5030498;28;20185;-42
2023/12/22 12:23:05;;;;;;;2.60;0.93;;;7.50;99.90;;;;;;5015371;28;20210;-43
2023/12/22 12:25:33;;;;;;;2.57;1.00;;;7.60;99.90;;;;;;5041748;28;20216;-42
2023/12/22 12:28:06;;;;;;;1.00;0.90;;;7.60;99.90;;;;;;5044277;28;20189;-42
2023/12/22 12:30:33;;;;;;;2.63;0.90;;;7.60;99.90;;;;;;5027920;28;20173;-42
2023/12/22 12:33:07;;;;;;;2.50;0.80;;;7.60;99.90;;;;;;5024133;28;20228;-42
2023/12/22 12:35:46;;;;;;;1.63;1.50;;;7.60;99.90;;;;;;5034554;28;20181;-42
2023/12/22 12:38:13;;;;;;;1.53;0.90;;;7.70;99.90;;;;;;5040852;28;20246;-42
2023/12/22 12:40:46;;;;;;;3.50;1.00;;;7.60;99.90;;;;;;5019416;28;20181;-42
2023/12/22 12:43:15;;;;;;;0.70;0.70;;;7.70;99.90;;;;;;5028128;28;20220;-42
2023/12/22 12:45:42;;;;;;;1.47;0.63;;;7.70;99.90;;;;;;5036857;28;20213;-43
2023/12/22 12:48:08;;;;;;;1.63;0.80;;;7.70;99.90;;;;;;5022411;28;20185;-42
2023/12/22 12:50:34;;;;;;;2.10;0.83;;;7.70;99.90;;;;;;5041284;28;20212;-42
2023/12/22 12:53:00;;;;;;;0.83;0.60;;;7.70;99.90;;;;;;5027436;28;20228;-42
2023/12/22 12:55:26;;;;;;;1.27;0.80;;;7.70;99.90;;;;;;5031272;28;20185;-42